»·PEaware :: N6262K KPVU-KASE

N6262K :: KPVU-KASE

FLIGHT INFORMATION

Flight Status: Arrived
Operator: Privately registered:
United States
More flights under this callsign
Pilot: Judson K. (15650)
Aircraft: BEECH AIRCRAFT SUPER KING AIR COMMUTER
(BE20)
More flights by this aircraft type
Origin: KPVU Provo Mun
United States
Destination: KASE Aspen-Pitkin Co/Sardy
United States
More flights between these airports :: More routes between these airports
Route: +PROVO4 FFU V134 PUC V134 JNC J80 DBL
File this flight plan on PilotEdge
Remarks:
Altitude:
(Current/Filed)
22,000ft
Speed:
(Current/Filed)
220kts
Departed: 18-Dec-17 10:02 PM
Arrived: 18-Dec-17 11:17 PM
Distance/Time
Traveled:
232nm/1:15
Distance/Time
To Go:
Arrived

Flight Plot

Page will automatically refresh every two minutes.

Flight plan parsing failed; only flown route is shown


Map Options




Map Legend


Flown Route
Filed Route
Departure Airport
Arrival Airport
Navaid (VOR, NDB)
Fix

Horizontal Profiles

Position Reports

Time Latitude Longitude Heading Altitude Ground
Speed
18-Dec-17 21:39 40.218149 -111.718567 54 4495ft 0kts
18-Dec-17 21:40 40.218149 -111.718567 54 4495ft 0kts
18-Dec-17 21:41 40.218149 -111.718567 54 4495ft 0kts
18-Dec-17 21:42 40.218149 -111.718567 54 4495ft 0kts
18-Dec-17 21:43 40.218149 -111.718567 54 4495ft 0kts
18-Dec-17 21:44 40.218149 -111.718567 54 4495ft 0kts
18-Dec-17 21:45 40.218149 -111.718567 54 4495ft 0kts
18-Dec-17 21:46 40.218149 -111.718567 54 4495ft 0kts
18-Dec-17 21:47 40.218149 -111.718567 54 4495ft 0kts
18-Dec-17 21:48 40.218149 -111.718567 54 4495ft 0kts
18-Dec-17 21:49 40.218149 -111.718567 54 4495ft 0kts
18-Dec-17 21:50 40.218149 -111.718567 54 4495ft 0kts
18-Dec-17 21:51 40.218149 -111.718567 54 4495ft 0kts
18-Dec-17 21:52 40.218149 -111.718567 54 4495ft 0kts
18-Dec-17 21:53 40.218149 -111.718567 54 4495ft 0kts
18-Dec-17 21:54 40.218149 -111.718567 54 4495ft 0kts
18-Dec-17 21:55 40.218149 -111.718567 54 4495ft 0kts
18-Dec-17 21:56 40.218149 -111.718567 54 4495ft 0kts
18-Dec-17 21:57 40.218149 -111.718567 54 4495ft 0kts
18-Dec-17 21:58 40.218149 -111.718567 54 4495ft 0kts
18-Dec-17 21:59 40.218149 -111.718567 54 4495ft 0kts
18-Dec-17 22:00 40.218149 -111.718567 54 4495ft 0kts
18-Dec-17 22:01 40.218149 -111.718567 54 4495ft 0kts
18-Dec-17 22:02 40.218149 -111.718567 54 4495ft 0kts
18-Dec-17 22:03 40.218016 -111.718510 214 4495ft 4kts
18-Dec-17 22:04 40.215215 -111.716975 146 4495ft 15kts
18-Dec-17 22:05 40.212372 -111.714743 193 4492ft 8kts
18-Dec-17 22:06 40.211989 -111.714902 196 4492ft 0kts
18-Dec-17 22:07 40.211151 -111.715415 269 4492ft 4kts
18-Dec-17 22:08 40.222399 -111.725480 324 4655ft 144kts
18-Dec-17 22:09 40.259051 -111.756430 327 6863ft 161kts
18-Dec-17 22:10 40.297404 -111.788017 327 8982ft 167kts
18-Dec-17 22:11 40.336757 -111.821390 326 10827ft 172kts
18-Dec-17 22:12 40.368080 -111.863634 258 12512ft 176kts
18-Dec-17 22:13 40.322715 -111.879311 188 14121ft 188kts
18-Dec-17 22:14 40.274655 -111.900412 241 15480ft 178kts
18-Dec-17 22:15 40.274155 -111.960359 292 16703ft 170kts
18-Dec-17 22:16 40.255248 -112.002967 170 17772ft 207kts
18-Dec-17 22:17 40.216351 -111.946881 102 18732ft 214kts
18-Dec-17 22:18 40.254084 -111.939711 344 19521ft 179kts
18-Dec-17 22:19 40.295355 -111.917435 94 20267ft 216kts
18-Dec-17 22:20 40.244626 -111.882647 168 20949ft 219kts
18-Dec-17 22:21 40.187334 -111.878321 232 21570ft 201kts
18-Dec-17 22:22 40.208031 -111.927075 330 22119ft 184kts
18-Dec-17 22:23 40.258534 -111.941006 352 22663ft 191kts
18-Dec-17 22:24 40.293892 -111.903748 104 23255ft 219kts
18-Dec-17 22:25 40.246107 -111.850024 149 23325ft 243kts
18-Dec-17 22:26 40.191948 -111.785843 123 23325ft 284kts
18-Dec-17 22:27 40.143450 -111.701325 126 23322ft 296kts
18-Dec-17 22:28 40.089969 -111.618350 129 23321ft 300kts
18-Dec-17 22:29 40.040371 -111.531076 121 23331ft 300kts
18-Dec-17 22:30 39.997415 -111.437755 122 23322ft 301kts
18-Dec-17 22:31 39.943589 -111.354413 132 23322ft 301kts
18-Dec-17 22:32 39.887317 -111.277868 134 23316ft 301kts
18-Dec-17 22:33 39.830908 -111.197553 128 23316ft 300kts
18-Dec-17 22:34 39.785525 -111.107015 115 23237ft 300kts
18-Dec-17 22:35 39.751461 -111.008338 116 23236ft 299kts
18-Dec-17 22:36 39.702602 -110.921273 130 23237ft 300kts
18-Dec-17 22:37 39.647534 -110.840391 126 23237ft 300kts
18-Dec-17 22:38 39.604729 -110.748153 118 23237ft 299kts
18-Dec-17 22:39 39.578982 -110.647122 103 23239ft 297kts
18-Dec-17 22:40 39.555836 -110.544830 104 23238ft 297kts
18-Dec-17 22:41 39.534017 -110.441700 102 23239ft 297kts
18-Dec-17 22:42 39.510088 -110.340869 105 23246ft 297kts
18-Dec-17 22:43 39.487012 -110.238601 104 23236ft 296kts
18-Dec-17 22:44 39.462339 -110.137097 108 23237ft 297kts
18-Dec-17 22:45 39.430527 -110.038543 113 23237ft 297kts
18-Dec-17 22:46 39.393016 -109.943275 117 23238ft 298kts
18-Dec-17 22:47 39.357579 -109.846819 108 23238ft 297kts
18-Dec-17 22:48 39.329055 -109.746927 108 23238ft 297kts
18-Dec-17 22:49 39.299737 -109.647324 109 23239ft 296kts
18-Dec-17 22:50 39.269951 -109.549202 109 23238ft 293kts
18-Dec-17 22:51 39.238986 -109.451875 110 23239ft 293kts
18-Dec-17 22:52 39.208152 -109.355021 108 23239ft 292kts
18-Dec-17 22:53 39.187585 -109.255846 101 23233ft 293kts
18-Dec-17 22:54 39.169554 -109.153989 102 23238ft 293kts
18-Dec-17 22:55 39.144624 -109.053975 111 23238ft 294kts
18-Dec-17 22:56 39.111567 -108.957451 113 23238ft 295kts
18-Dec-17 22:57 39.076529 -108.862458 112 23239ft 295kts
18-Dec-17 22:58 39.064486 -108.761708 78 23239ft 289kts
18-Dec-17 22:59 39.080089 -108.660657 74 23239ft 288kts
18-Dec-17 23:00 39.099416 -108.560836 71 23230ft 288kts
18-Dec-17 23:01 39.120838 -108.462016 69 23239ft 287kts
18-Dec-17 23:02 39.146444 -108.364837 66 23239ft 286kts
18-Dec-17 23:03 39.175343 -108.272806 63 23237ft 285kts
18-Dec-17 23:04 39.209166 -108.180653 60 23238ft 284kts
18-Dec-17 23:05 39.245381 -108.090407 66 23237ft 286kts
18-Dec-17 23:06 39.258302 -107.988669 84 23239ft 290kts
18-Dec-17 23:07 39.261029 -107.885103 86 23265ft 290kts
18-Dec-17 23:08 39.262830 -107.780901 86 23265ft 290kts
18-Dec-17 23:09 39.266417 -107.677312 81 23265ft 289kts
18-Dec-17 23:10 39.279768 -107.575146 75 23279ft 287kts
18-Dec-17 23:11 39.297719 -107.475112 72 23296ft 287kts
18-Dec-17 23:12 39.316695 -107.377899 75 22466ft 264kts
18-Dec-17 23:13 39.333314 -107.295565 69 21388ft 252kts
18-Dec-17 23:14 39.360574 -107.212811 61 19996ft 251kts
18-Dec-17 23:15 39.389923 -107.131643 67 18601ft 255kts
18-Dec-17 23:16 39.403987 -107.043448 78 17205ft 241kts
18-Dec-17 23:17 39.415517 -106.962301 75 15791ft 220kts
18-Dec-17 23:18 39.382431 -106.916781 177 13851ft 227kts
18-Dec-17 23:19 39.330358 -106.913343 168 12635ft 142kts
18-Dec-17 23:20 39.296437 -106.902831 160 10307ft 119kts
18-Dec-17 23:21 39.268152 -106.889897 162 8522ft 99kts
18-Dec-17 23:22 39.241610 -106.877598 161 7798ft 99kts
18-Dec-17 23:23 39.223188 -106.868838 161 7735ft 15kts
18-Dec-17 23:24 39.222416 -106.867498 70 7745ft 0kts
18-Dec-17 23:25 39.224874 -106.867838 35 7725ft 3kts
18-Dec-17 23:26 39.224952 -106.867942 248 7724ft 0kts
18-Dec-17 23:27 39.224952 -106.867942 248 7724ft 0kts

Navigation Log

Ident Type
Flight plan parsing failed, navigation log unavailable